sensor_id;sensor_type;location;lat;lon;timestamp;P1;durP1;ratioP1;P2;durP2;ratioP2
69979;SDS011;57318;56.232;43.944;2023-07-28T00:01:14;14.87;;;10.70;;
69979;SDS011;57318;56.232;43.944;2023-07-28T00:03:40;18.83;;;11.07;;
69979;SDS011;57318;56.232;43.944;2023-07-28T00:06:06;15.80;;;10.67;;
69979;SDS011;57318;56.232;43.944;2023-07-28T00:08:31;15.40;;;10.50;;
69979;SDS011;57318;56.232;43.944;2023-07-28T00:10:57;15.00;;;10.67;;
69979;SDS011;57318;56.232;43.944;2023-07-28T00:13:25;15.65;;;10.82;;
69979;SDS011;57318;56.232;43.944;2023-07-28T00:15:50;15.93;;;11.20;;
69979;SDS011;57318;56.232;43.944;2023-07-28T00:18:16;16.40;;;10.40;;
69979;SDS011;57318;56.232;43.944;2023-07-28T00:20:43;15.57;;;10.80;;
69979;SDS011;57318;56.232;43.944;2023-07-28T00:23:09;15.50;;;11.13;;
69979;SDS011;57318;56.232;43.944;2023-07-28T00:25:35;14.63;;;10.67;;
69979;SDS011;57318;56.232;43.944;2023-07-28T00:28:00;15.17;;;10.37;;
69979;SDS011;57318;56.232;43.944;2023-07-28T00:30:26;15.37;;;11.40;;
69979;SDS011;57318;56.232;43.944;2023-07-28T00:32:52;16.10;;;10.75;;
69979;SDS011;57318;56.232;43.944;2023-07-28T00:35:18;15.70;;;11.17;;
69979;SDS011;57318;56.232;43.944;2023-07-28T00:37:43;16.03;;;11.00;;
69979;SDS011;57318;56.232;43.944;2023-07-28T00:40:09;15.57;;;11.03;;
69979;SDS011;57318;56.232;43.944;2023-07-28T00:42:36;17.35;;;11.38;;
69979;SDS011;57318;56.232;43.944;2023-07-28T00:45:02;17.20;;;11.13;;
69979;SDS011;57318;56.232;43.944;2023-07-28T00:47:30;17.98;;;10.57;;
69979;SDS011;57318;56.232;43.944;2023-07-28T00:49:56;18.33;;;10.73;;
69979;SDS011;57318;56.232;43.944;2023-07-28T00:52:21;16.07;;;10.73;;
69979;SDS011;57318;56.232;43.944;2023-07-28T00:54:47;18.03;;;11.40;;
69979;SDS011;57318;56.232;43.944;2023-07-28T00:57:13;13.70;;;10.40;;
69979;SDS011;57318;56.232;43.944;2023-07-28T00:59:38;17.17;;;11.07;;
69979;SDS011;57318;56.232;43.944;2023-07-28T01:02:04;15.55;;;11.07;;
69979;SDS011;57318;56.232;43.944;2023-07-28T01:04:30;16.23;;;10.93;;
69979;SDS011;57318;56.232;43.944;2023-07-28T01:09:41;15.93;;;11.05;;
69979;SDS011;57318;56.232;43.944;2023-07-28T01:12:24;17.38;;;11.23;;
69979;SDS011;57318;56.232;43.944;2023-07-28T01:14:49;14.90;;;10.23;;
69979;SDS011;57318;56.232;43.944;2023-07-28T01:17:15;16.03;;;11.30;;
69979;SDS011;57318;56.232;43.944;2023-07-28T01:19:41;15.27;;;10.68;;
69979;SDS011;57318;56.232;43.944;2023-07-28T01:24:40;16.73;;;10.63;;
69979;SDS011;57318;56.232;43.944;2023-07-28T01:27:15;16.08;;;10.85;;
69979;SDS011;57318;56.232;43.944;2023-07-28T01:29:41;15.52;;;10.60;;
69979;SDS011;57318;56.232;43.944;2023-07-28T01:32:07;16.35;;;10.02;;
69979;SDS011;57318;56.232;43.944;2023-07-28T01:34:36;14.93;;;10.60;;
69979;SDS011;57318;56.232;43.944;2023-07-28T01:37:01;16.47;;;10.63;;
69979;SDS011;57318;56.232;43.944;2023-07-28T01:39:27;15.32;;;10.82;;
69979;SDS011;57318;56.232;43.944;2023-07-28T01:41:53;18.23;;;10.47;;
69979;SDS011;57318;56.232;43.944;2023-07-28T01:44:19;15.23;;;10.03;;
69979;SDS011;57318;56.232;43.944;2023-07-28T01:46:44;15.30;;;10.00;;
69979;SDS011;57318;56.232;43.944;2023-07-28T01:49:10;16.60;;;10.23;;
69979;SDS011;57318;56.232;43.944;2023-07-28T01:51:36;16.97;;;10.70;;
69979;SDS011;57318;56.232;43.944;2023-07-28T01:54:01;15.83;;;10.63;;
69979;SDS011;57318;56.232;43.944;2023-07-28T01:56:27;16.50;;;10.87;;
69979;SDS011;57318;56.232;43.944;2023-07-28T01:58:53;16.07;;;10.93;;
69979;SDS011;57318;56.232;43.944;2023-07-28T02:01:18;18.98;;;10.57;;
69979;SDS011;57318;56.232;43.944;2023-07-28T02:03:44;17.03;;;11.57;;
69979;SDS011;57318;56.232;43.944;2023-07-28T02:06:10;17.23;;;10.63;;
69979;SDS011;57318;56.232;43.944;2023-07-28T02:08:35;13.20;;;10.60;;
69979;SDS011;57318;56.232;43.944;2023-07-28T02:11:02;17.80;;;11.15;;
69979;SDS011;57318;56.232;43.944;2023-07-28T02:13:28;17.02;;;11.10;;
69979;SDS011;57318;56.232;43.944;2023-07-28T02:15:54;15.43;;;11.15;;
69979;SDS011;57318;56.232;43.944;2023-07-28T02:18:20;19.30;;;11.05;;
69979;SDS011;57318;56.232;43.944;2023-07-28T02:20:47;18.57;;;10.77;;
69979;SDS011;57318;56.232;43.944;2023-07-28T02:23:14;14.98;;;10.25;;
69979;SDS011;57318;56.232;43.944;2023-07-28T02:25:40;16.48;;;11.18;;
69979;SDS011;57318;56.232;43.944;2023-07-28T02:28:07;13.07;;;9.87;;
69979;SDS011;57318;56.232;43.944;2023-07-28T02:30:35;17.50;;;11.00;;
69979;SDS011;57318;56.232;43.944;2023-07-28T02:33:00;14.50;;;10.23;;
69979;SDS011;57318;56.232;43.944;2023-07-28T02:35:26;16.00;;;9.73;;
69979;SDS011;57318;56.232;43.944;2023-07-28T02:37:51;16.20;;;10.13;;
69979;SDS011;57318;56.232;43.944;2023-07-28T02:40:19;15.98;;;10.20;;
69979;SDS011;57318;56.232;43.944;2023-07-28T02:45:11;14.27;;;10.07;;
69979;SDS011;57318;56.232;43.944;2023-07-28T02:47:37;15.55;;;10.18;;
69979;SDS011;57318;56.232;43.944;2023-07-28T02:50:03;13.57;;;9.87;;
69979;SDS011;57318;56.232;43.944;2023-07-28T02:52:30;20.63;;;10.23;;
69979;SDS011;57318;56.232;43.944;2023-07-28T02:54:55;14.77;;;9.73;;
69979;SDS011;57318;56.232;43.944;2023-07-28T02:57:21;15.77;;;9.57;;
69979;SDS011;57318;56.232;43.944;2023-07-28T02:59:47;14.25;;;9.20;;
69979;SDS011;57318;56.232;43.944;2023-07-28T03:02:14;13.13;;;9.68;;
69979;SDS011;57318;56.232;43.944;2023-07-28T03:04:39;14.60;;;10.00;;
69979;SDS011;57318;56.232;43.944;2023-07-28T03:07:05;15.97;;;10.03;;
69979;SDS011;57318;56.232;43.944;2023-07-28T03:09:31;14.25;;;10.27;;
69979;SDS011;57318;56.232;43.944;2023-07-28T03:11:58;13.88;;;10.10;;
69979;SDS011;57318;56.232;43.944;2023-07-28T03:14:24;12.23;;;9.88;;
69979;SDS011;57318;56.232;43.944;2023-07-28T03:16:50;16.93;;;10.00;;
69979;SDS011;57318;56.232;43.944;2023-07-28T03:19:17;16.33;;;9.88;;
69979;SDS011;57318;56.232;43.944;2023-07-28T03:21:42;14.60;;;9.80;;
69979;SDS011;57318;56.232;43.944;2023-07-28T03:24:08;20.77;;;9.60;;
69979;SDS011;57318;56.232;43.944;2023-07-28T03:26:34;12.80;;;9.53;;
69979;SDS011;57318;56.232;43.944;2023-07-28T03:29:00;11.70;;;8.82;;
69979;SDS011;57318;56.232;43.944;2023-07-28T03:31:25;11.87;;;8.67;;
69979;SDS011;57318;56.232;43.944;2023-07-28T03:33:51;13.32;;;9.40;;
69979;SDS011;57318;56.232;43.944;2023-07-28T03:36:17;16.00;;;9.03;;
69979;SDS011;57318;56.232;43.944;2023-07-28T03:38:44;14.43;;;9.02;;
69979;SDS011;57318;56.232;43.944;2023-07-28T03:41:11;16.55;;;8.75;;
69979;SDS011;57318;56.232;43.944;2023-07-28T03:43:37;13.50;;;8.77;;
69979;SDS011;57318;56.232;43.944;2023-07-28T03:46:02;11.20;;;8.38;;
69979;SDS011;57318;56.232;43.944;2023-07-28T03:48:28;11.63;;;8.50;;
69979;SDS011;57318;56.232;43.944;2023-07-28T03:50:54;12.25;;;8.63;;
69979;SDS011;57318;56.232;43.944;2023-07-28T03:53:20;14.25;;;9.10;;
69979;SDS011;57318;56.232;43.944;2023-07-28T03:55:45;11.10;;;7.85;;
69979;SDS011;57318;56.232;43.944;2023-07-28T03:58:11;14.80;;;8.87;;
69979;SDS011;57318;56.232;43.944;2023-07-28T04:00:37;12.17;;;8.73;;
69979;SDS011;57318;56.232;43.944;2023-07-28T04:03:03;13.65;;;9.30;;
69979;SDS011;57318;56.232;43.944;2023-07-28T04:05:28;13.70;;;8.30;;
69979;SDS011;57318;56.232;43.944;2023-07-28T04:07:54;11.83;;;8.63;;
69979;SDS011;57318;56.232;43.944;2023-07-28T04:10:20;13.80;;;7.80;;
69979;SDS011;57318;56.232;43.944;2023-07-28T04:12:46;11.63;;;7.72;;
69979;SDS011;57318;56.232;43.944;2023-07-28T04:15:11;12.70;;;8.20;;
69979;SDS011;57318;56.232;43.944;2023-07-28T04:17:38;14.85;;;8.20;;
69979;SDS011;57318;56.232;43.944;2023-07-28T04:20:04;12.13;;;8.23;;
69979;SDS011;57318;56.232;43.944;2023-07-28T04:22:31;11.43;;;7.55;;
69979;SDS011;57318;56.232;43.944;2023-07-28T04:24:56;14.43;;;8.35;;
69979;SDS011;57318;56.232;43.944;2023-07-28T04:27:22;11.02;;;7.68;;
69979;SDS011;57318;56.232;43.944;2023-07-28T04:29:48;11.80;;;8.27;;
69979;SDS011;57318;56.232;43.944;2023-07-28T04:32:13;13.30;;;7.13;;
69979;SDS011;57318;56.232;43.944;2023-07-28T04:34:39;10.55;;;7.63;;
69979;SDS011;57318;56.232;43.944;2023-07-28T04:37:05;11.82;;;8.05;;
69979;SDS011;57318;56.232;43.944;2023-07-28T04:39:31;10.93;;;7.22;;
69979;SDS011;57318;56.232;43.944;2023-07-28T04:41:56;14.68;;;7.88;;
69979;SDS011;57318;56.232;43.944;2023-07-28T04:44:22;11.63;;;8.07;;
69979;SDS011;57318;56.232;43.944;2023-07-28T04:46:48;10.35;;;7.50;;
69979;SDS011;57318;56.232;43.944;2023-07-28T04:49:13;10.30;;;7.68;;
69979;SDS011;57318;56.232;43.944;2023-07-28T04:51:39;11.93;;;7.57;;
69979;SDS011;57318;56.232;43.944;2023-07-28T04:54:05;11.63;;;7.43;;
69979;SDS011;57318;56.232;43.944;2023-07-28T04:56:30;14.43;;;7.50;;
69979;SDS011;57318;56.232;43.944;2023-07-28T04:58:56;11.32;;;8.18;;
69979;SDS011;57318;56.232;43.944;2023-07-28T05:01:24;11.32;;;7.55;;
69979;SDS011;57318;56.232;43.944;2023-07-28T05:03:50;14.52;;;7.78;;
69979;SDS011;57318;56.232;43.944;2023-07-28T05:06:15;12.00;;;7.60;;
69979;SDS011;57318;56.232;43.944;2023-07-28T05:08:41;15.75;;;7.70;;
69979;SDS011;57318;56.232;43.944;2023-07-28T05:11:07;10.52;;;7.35;;
69979;SDS011;57318;56.232;43.944;2023-07-28T05:13:33;11.18;;;7.50;;
69979;SDS011;57318;56.232;43.944;2023-07-28T05:15:59;11.70;;;7.47;;
69979;SDS011;57318;56.232;43.944;2023-07-28T05:18:25;12.60;;;8.07;;
69979;SDS011;57318;56.232;43.944;2023-07-28T05:20:50;12.98;;;8.05;;
69979;SDS011;57318;56.232;43.944;2023-07-28T05:23:16;9.32;;;7.28;;
69979;SDS011;57318;56.232;43.944;2023-07-28T05:25:42;9.80;;;7.57;;
69979;SDS011;57318;56.232;43.944;2023-07-28T05:28:08;10.38;;;7.90;;
69979;SDS011;57318;56.232;43.944;2023-07-28T05:30:34;9.55;;;7.38;;
69979;SDS011;57318;56.232;43.944;2023-07-28T05:32:59;14.57;;;8.02;;
69979;SDS011;57318;56.232;43.944;2023-07-28T05:35:25;10.18;;;7.55;;
69979;SDS011;57318;56.232;43.944;2023-07-28T05:37:52;11.15;;;7.50;;
69979;SDS011;57318;56.232;43.944;2023-07-28T05:40:19;11.60;;;6.90;;
69979;SDS011;57318;56.232;43.944;2023-07-28T05:42:45;11.82;;;7.07;;
69979;SDS011;57318;56.232;43.944;2023-07-28T05:45:11;13.38;;;7.40;;
69979;SDS011;57318;56.232;43.944;2023-07-28T05:47:36;10.57;;;6.95;;
69979;SDS011;57318;56.232;43.944;2023-07-28T05:50:02;12.88;;;7.22;;
69979;SDS011;57318;56.232;43.944;2023-07-28T05:52:29;11.00;;;6.93;;
69979;SDS011;57318;56.232;43.944;2023-07-28T05:54:55;10.13;;;7.28;;
69979;SDS011;57318;56.232;43.944;2023-07-28T05:57:20;10.25;;;7.35;;
69979;SDS011;57318;56.232;43.944;2023-07-28T05:59:46;10.77;;;7.10;;
69979;SDS011;57318;56.232;43.944;2023-07-28T06:02:12;10.13;;;7.05;;
69979;SDS011;57318;56.232;43.944;2023-07-28T06:04:37;9.82;;;7.10;;
69979;SDS011;57318;56.232;43.944;2023-07-28T06:07:04;9.15;;;7.15;;
69979;SDS011;57318;56.232;43.944;2023-07-28T06:09:30;12.80;;;7.07;;
69979;SDS011;57318;56.232;43.944;2023-07-28T06:11:56;10.60;;;7.10;;
69979;SDS011;57318;56.232;43.944;2023-07-28T06:14:21;12.95;;;7.40;;
69979;SDS011;57318;56.232;43.944;2023-07-28T06:16:47;9.32;;;6.75;;
69979;SDS011;57318;56.232;43.944;2023-07-28T06:19:13;17.75;;;7.30;;
69979;SDS011;57318;56.232;43.944;2023-07-28T06:21:38;9.77;;;7.25;;
69979;SDS011;57318;56.232;43.944;2023-07-28T06:24:04;9.30;;;6.43;;
69979;SDS011;57318;56.232;43.944;2023-07-28T06:26:31;10.45;;;7.70;;
69979;SDS011;57318;56.232;43.944;2023-07-28T06:28:57;8.55;;;6.70;;
69979;SDS011;57318;56.232;43.944;2023-07-28T06:31:22;11.48;;;6.95;;
69979;SDS011;57318;56.232;43.944;2023-07-28T06:33:48;11.80;;;6.63;;
69979;SDS011;57318;56.232;43.944;2023-07-28T06:36:14;10.95;;;7.28;;
69979;SDS011;57318;56.232;43.944;2023-07-28T06:38:39;8.35;;;6.63;;
69979;SDS011;57318;56.232;43.944;2023-07-28T06:41:05;10.25;;;7.18;;
69979;SDS011;57318;56.232;43.944;2023-07-28T06:43:31;9.80;;;7.13;;
69979;SDS011;57318;56.232;43.944;2023-07-28T06:45:56;11.93;;;6.97;;
69979;SDS011;57318;56.232;43.944;2023-07-28T06:48:22;11.35;;;7.13;;
69979;SDS011;57318;56.232;43.944;2023-07-28T06:53:14;11.48;;;6.63;;
69979;SDS011;57318;56.232;43.944;2023-07-28T06:58:05;9.38;;;6.35;;
69979;SDS011;57318;56.232;43.944;2023-07-28T07:00:32;8.40;;;6.18;;
69979;SDS011;57318;56.232;43.944;2023-07-28T07:02:58;8.13;;;6.60;;
69979;SDS011;57318;56.232;43.944;2023-07-28T07:05:24;10.05;;;5.85;;
69979;SDS011;57318;56.232;43.944;2023-07-28T07:07:50;8.13;;;6.15;;
69979;SDS011;57318;56.232;43.944;2023-07-28T07:10:16;13.02;;;6.40;;
69979;SDS011;57318;56.232;43.944;2023-07-28T07:12:42;13.13;;;6.32;;
69979;SDS011;57318;56.232;43.944;2023-07-28T07:15:08;9.05;;;6.22;;
69979;SDS011;57318;56.232;43.944;2023-07-28T07:17:33;9.75;;;6.28;;
69979;SDS011;57318;56.232;43.944;2023-07-28T07:19:59;8.52;;;6.45;;
69979;SDS011;57318;56.232;43.944;2023-07-28T07:22:25;7.75;;;6.65;;
69979;SDS011;57318;56.232;43.944;2023-07-28T07:24:51;9.57;;;6.40;;
69979;SDS011;57318;56.232;43.944;2023-07-28T07:27:16;8.98;;;6.25;;
69979;SDS011;57318;56.232;43.944;2023-07-28T07:29:42;8.20;;;6.10;;
69979;SDS011;57318;56.232;43.944;2023-07-28T07:32:08;10.25;;;6.22;;
69979;SDS011;57318;56.232;43.944;2023-07-28T07:34:35;14.68;;;6.75;;
69979;SDS011;57318;56.232;43.944;2023-07-28T07:37:02;10.15;;;5.50;;
69979;SDS011;57318;56.232;43.944;2023-07-28T07:39:28;12.02;;;5.93;;
69979;SDS011;57318;56.232;43.944;2023-07-28T07:41:54;8.52;;;5.60;;
69979;SDS011;57318;56.232;43.944;2023-07-28T07:44:20;7.68;;;5.82;;
69979;SDS011;57318;56.232;43.944;2023-07-28T07:46:46;7.82;;;5.50;;
69979;SDS011;57318;56.232;43.944;2023-07-28T07:49:12;7.03;;;5.05;;
69979;SDS011;57318;56.232;43.944;2023-07-28T07:51:38;8.07;;;5.18;;
69979;SDS011;57318;56.232;43.944;2023-07-28T07:54:04;8.82;;;5.43;;
69979;SDS011;57318;56.232;43.944;2023-07-28T07:56:30;9.43;;;5.18;;
69979;SDS011;57318;56.232;43.944;2023-07-28T07:58:55;9.00;;;5.10;;
69979;SDS011;57318;56.232;43.944;2023-07-28T08:01:21;5.80;;;5.18;;
69979;SDS011;57318;56.232;43.944;2023-07-28T08:03:47;7.18;;;4.80;;
69979;SDS011;57318;56.232;43.944;2023-07-28T08:06:13;7.50;;;5.10;;
69979;SDS011;57318;56.232;43.944;2023-07-28T08:08:38;7.50;;;4.95;;
69979;SDS011;57318;56.232;43.944;2023-07-28T08:11:04;9.45;;;5.13;;
69979;SDS011;57318;56.232;43.944;2023-07-28T08:13:31;8.40;;;4.95;;
69979;SDS011;57318;56.232;43.944;2023-07-28T08:15:56;6.85;;;4.88;;
69979;SDS011;57318;56.232;43.944;2023-07-28T08:18:22;8.52;;;5.20;;
69979;SDS011;57318;56.232;43.944;2023-07-28T08:20:48;8.07;;;5.18;;
69979;SDS011;57318;56.232;43.944;2023-07-28T08:23:14;8.10;;;5.28;;
69979;SDS011;57318;56.232;43.944;2023-07-28T08:25:40;10.07;;;5.00;;
69979;SDS011;57318;56.232;43.944;2023-07-28T08:28:06;8.75;;;5.28;;
69979;SDS011;57318;56.232;43.944;2023-07-28T08:30:32;8.38;;;4.78;;
69979;SDS011;57318;56.232;43.944;2023-07-28T08:32:58;5.35;;;4.70;;
69979;SDS011;57318;56.232;43.944;2023-07-28T08:35:24;8.88;;;5.03;;
69979;SDS011;57318;56.232;43.944;2023-07-28T08:37:49;7.60;;;5.05;;
69979;SDS011;57318;56.232;43.944;2023-07-28T08:40:16;8.18;;;5.20;;
69979;SDS011;57318;56.232;43.944;2023-07-28T08:42:42;5.00;;;4.47;;
69979;SDS011;57318;56.232;43.944;2023-07-28T08:45:07;6.32;;;4.95;;
69979;SDS011;57318;56.232;43.944;2023-07-28T08:47:34;5.55;;;5.00;;
69979;SDS011;57318;56.232;43.944;2023-07-28T08:50:01;7.30;;;5.20;;
69979;SDS011;57318;56.232;43.944;2023-07-28T08:52:29;9.63;;;4.80;;
69979;SDS011;57318;56.232;43.944;2023-07-28T08:54:54;6.40;;;5.28;;
69979;SDS011;57318;56.232;43.944;2023-07-28T08:57:20;6.68;;;5.40;;
69979;SDS011;57318;56.232;43.944;2023-07-28T08:59:46;7.88;;;5.28;;
69979;SDS011;57318;56.232;43.944;2023-07-28T09:02:16;6.22;;;4.82;;
69979;SDS011;57318;56.232;43.944;2023-07-28T09:04:44;4.95;;;4.38;;
69979;SDS011;57318;56.232;43.944;2023-07-28T09:07:12;8.68;;;5.07;;
69979;SDS011;57318;56.232;43.944;2023-07-28T09:09:39;6.35;;;4.70;;
69979;SDS011;57318;56.232;43.944;2023-07-28T09:12:08;7.25;;;4.57;;
69979;SDS011;57318;56.232;43.944;2023-07-28T09:14:38;5.57;;;4.50;;
69979;SDS011;57318;56.232;43.944;2023-07-28T09:17:11;6.80;;;4.50;;
69979;SDS011;57318;56.232;43.944;2023-07-28T09:19:55;6.70;;;4.63;;
69979;SDS011;57318;56.232;43.944;2023-07-28T09:22:22;6.38;;;4.25;;
69979;SDS011;57318;56.232;43.944;2023-07-28T09:24:49;7.32;;;4.55;;
69979;SDS011;57318;56.232;43.944;2023-07-28T09:27:22;5.03;;;4.03;;
69979;SDS011;57318;56.232;43.944;2023-07-28T09:29:49;7.20;;;4.30;;
69979;SDS011;57318;56.232;43.944;2023-07-28T09:32:17;4.97;;;4.45;;
69979;SDS011;57318;56.232;43.944;2023-07-28T09:35:10;4.38;;;4.00;;
69979;SDS011;57318;56.232;43.944;2023-07-28T09:37:38;5.47;;;3.60;;
69979;SDS011;57318;56.232;43.944;2023-07-28T09:40:09;4.93;;;3.90;;
69979;SDS011;57318;56.232;43.944;2023-07-28T09:42:39;6.18;;;3.95;;
69979;SDS011;57318;56.232;43.944;2023-07-28T09:45:07;4.45;;;4.05;;
69979;SDS011;57318;56.232;43.944;2023-07-28T09:47:35;4.43;;;3.90;;
69979;SDS011;57318;56.232;43.944;2023-07-28T09:50:05;6.97;;;4.18;;
69979;SDS011;57318;56.232;43.944;2023-07-28T09:52:34;8.63;;;4.15;;
69979;SDS011;57318;56.232;43.944;2023-07-28T09:55:06;4.93;;;3.60;;
69979;SDS011;57318;56.232;43.944;2023-07-28T09:57:36;7.78;;;4.00;;
69979;SDS011;57318;56.232;43.944;2023-07-28T10:00:10;4.95;;;3.70;;
69979;SDS011;57318;56.232;43.944;2023-07-28T10:02:38;4.30;;;3.90;;
69979;SDS011;57318;56.232;43.944;2023-07-28T10:05:05;8.07;;;3.90;;
69979;SDS011;57318;56.232;43.944;2023-07-28T10:07:37;4.65;;;3.72;;
69979;SDS011;57318;56.232;43.944;2023-07-28T10:10:06;5.55;;;3.80;;
69979;SDS011;57318;56.232;43.944;2023-07-28T10:12:41;6.03;;;3.75;;
69979;SDS011;57318;56.232;43.944;2023-07-28T10:15:13;4.45;;;4.05;;
69979;SDS011;57318;56.232;43.944;2023-07-28T10:17:44;4.30;;;3.90;;
69979;SDS011;57318;56.232;43.944;2023-07-28T10:23:02;6.13;;;3.85;;
69979;SDS011;57318;56.232;43.944;2023-07-28T10:25:47;4.00;;;3.60;;
69979;SDS011;57318;56.232;43.944;2023-07-28T10:28:25;4.93;;;3.92;;
69979;SDS011;57318;56.232;43.944;2023-07-28T10:30:57;4.00;;;3.60;;
69979;SDS011;57318;56.232;43.944;2023-07-28T10:33:31;10.88;;;4.30;;
69979;SDS011;57318;56.232;43.944;2023-07-28T10:35:59;4.05;;;3.60;;
69979;SDS011;57318;56.232;43.944;2023-07-28T10:38:36;4.95;;;3.85;;
69979;SDS011;57318;56.232;43.944;2023-07-28T10:43:39;4.20;;;3.80;;
69979;SDS011;57318;56.232;43.944;2023-07-28T10:46:08;4.25;;;3.90;;
69979;SDS011;57318;56.232;43.944;2023-07-28T10:48:45;4.20;;;3.80;;
69979;SDS011;57318;56.232;43.944;2023-07-28T10:51:20;4.90;;;3.63;;
69979;SDS011;57318;56.232;43.944;2023-07-28T10:53:51;4.38;;;4.00;;
69979;SDS011;57318;56.232;43.944;2023-07-28T10:56:17;6.15;;;4.07;;
69979;SDS011;57318;56.232;43.944;2023-07-28T10:58:44;7.65;;;4.00;;
69979;SDS011;57318;56.232;43.944;2023-07-28T11:01:09;5.63;;;4.40;;
69979;SDS011;57318;56.232;43.944;2023-07-28T11:03:36;4.28;;;3.97;;
69979;SDS011;57318;56.232;43.944;2023-07-28T11:06:02;3.67;;;3.38;;
69979;SDS011;57318;56.232;43.944;2023-07-28T11:08:28;5.47;;;3.65;;
69979;SDS011;57318;56.232;43.944;2023-07-28T11:10:54;4.93;;;3.70;;
69979;SDS011;57318;56.232;43.944;2023-07-28T11:13:22;5.90;;;3.90;;
69979;SDS011;57318;56.232;43.944;2023-07-28T11:15:50;7.32;;;3.70;;
69979;SDS011;57318;56.232;43.944;2023-07-28T11:18:16;5.38;;;3.70;;
69979;SDS011;57318;56.232;43.944;2023-07-28T11:20:42;4.78;;;3.55;;
69979;SDS011;57318;56.232;43.944;2023-07-28T11:23:10;5.82;;;3.60;;
69979;SDS011;57318;56.232;43.944;2023-07-28T11:25:39;7.25;;;3.90;;
69979;SDS011;57318;56.232;43.944;2023-07-28T11:28:06;4.05;;;3.40;;
69979;SDS011;57318;56.232;43.944;2023-07-28T11:30:33;5.82;;;3.53;;
69979;SDS011;57318;56.232;43.944;2023-07-28T11:33:03;6.50;;;3.65;;
69979;SDS011;57318;56.232;43.944;2023-07-28T11:35:29;5.20;;;3.50;;
69979;SDS011;57318;56.232;43.944;2023-07-28T11:37:55;4.85;;;3.90;;
69979;SDS011;57318;56.232;43.944;2023-07-28T11:40:21;4.45;;;3.80;;
69979;SDS011;57318;56.232;43.944;2023-07-28T11:42:50;4.82;;;3.97;;
69979;SDS011;57318;56.232;43.944;2023-07-28T11:45:19;5.10;;;3.95;;
69979;SDS011;57318;56.232;43.944;2023-07-28T11:47:57;4.03;;;3.45;;
69979;SDS011;57318;56.232;43.944;2023-07-28T11:52:52;5.85;;;3.92;;
69979;SDS011;57318;56.232;43.944;2023-07-28T11:55:19;6.07;;;3.88;;
69979;SDS011;57318;56.232;43.944;2023-07-28T11:57:46;4.53;;;3.50;;
69979;SDS011;57318;56.232;43.944;2023-07-28T12:00:14;7.47;;;3.90;;
69979;SDS011;57318;56.232;43.944;2023-07-28T12:02:43;5.20;;;3.72;;
69979;SDS011;57318;56.232;43.944;2023-07-28T12:05:16;7.72;;;4.28;;
69979;SDS011;57318;56.232;43.944;2023-07-28T12:07:47;8.07;;;4.30;;
69979;SDS011;57318;56.232;43.944;2023-07-28T12:10:14;4.90;;;4.30;;
69979;SDS011;57318;56.232;43.944;2023-07-28T12:12:40;4.45;;;4.05;;
69979;SDS011;57318;56.232;43.944;2023-07-28T12:20:46;5.32;;;4.00;;
69979;SDS011;57318;56.232;43.944;2023-07-28T12:23:18;5.68;;;3.78;;
69979;SDS011;57318;56.232;43.944;2023-07-28T12:25:46;5.45;;;3.63;;
69979;SDS011;57318;56.232;43.944;2023-07-28T12:28:12;7.25;;;3.90;;
69979;SDS011;57318;56.232;43.944;2023-07-28T12:30:38;4.30;;;3.90;;
69979;SDS011;57318;56.232;43.944;2023-07-28T12:33:05;5.63;;;4.03;;
69979;SDS011;57318;56.232;43.944;2023-07-28T12:35:31;5.60;;;3.80;;
69979;SDS011;57318;56.232;43.944;2023-07-28T12:38:00;4.25;;;3.78;;
69979;SDS011;57318;56.232;43.944;2023-07-28T12:40:31;4.28;;;3.90;;
69979;SDS011;57318;56.232;43.944;2023-07-28T12:43:00;6.53;;;4.38;;
69979;SDS011;57318;56.232;43.944;2023-07-28T12:45:27;4.07;;;3.78;;
69979;SDS011;57318;56.232;43.944;2023-07-28T12:47:53;5.25;;;4.50;;
69979;SDS011;57318;56.232;43.944;2023-07-28T12:50:22;4.45;;;4.05;;
69979;SDS011;57318;56.232;43.944;2023-07-28T12:52:49;5.03;;;3.92;;
69979;SDS011;57318;56.232;43.944;2023-07-28T12:55:16;5.20;;;4.63;;
69979;SDS011;57318;56.232;43.944;2023-07-28T12:57:45;4.40;;;4.00;;
69979;SDS011;57318;56.232;43.944;2023-07-28T13:00:14;5.00;;;4.13;;
69979;SDS011;57318;56.232;43.944;2023-07-28T13:02:42;5.82;;;4.00;;
69979;SDS011;57318;56.232;43.944;2023-07-28T13:05:10;4.50;;;4.10;;
69979;SDS011;57318;56.232;43.944;2023-07-28T13:07:37;5.85;;;4.20;;
69979;SDS011;57318;56.232;43.944;2023-07-28T13:10:04;8.50;;;4.18;;
69979;SDS011;57318;56.232;43.944;2023-07-28T13:12:31;8.30;;;4.25;;
69979;SDS011;57318;56.232;43.944;2023-07-28T13:14:57;5.28;;;4.15;;
69979;SDS011;57318;56.232;43.944;2023-07-28T13:17:22;9.18;;;4.40;;
69979;SDS011;57318;56.232;43.944;2023-07-28T13:19:48;7.03;;;4.20;;
69979;SDS011;57318;56.232;43.944;2023-07-28T13:22:14;4.88;;;4.00;;
69979;SDS011;57318;56.232;43.944;2023-07-28T13:24:39;4.80;;;4.20;;
69979;SDS011;57318;56.232;43.944;2023-07-28T13:27:07;4.80;;;4.40;;
69979;SDS011;57318;56.232;43.944;2023-07-28T13:29:32;5.65;;;4.30;;
69979;SDS011;57318;56.232;43.944;2023-07-28T13:31:58;7.28;;;4.40;;
69979;SDS011;57318;56.232;43.944;2023-07-28T13:34:32;5.15;;;4.63;;
69979;SDS011;57318;56.232;43.944;2023-07-28T13:36:58;4.90;;;4.20;;
69979;SDS011;57318;56.232;43.944;2023-07-28T13:39:23;5.03;;;4.53;;
69979;SDS011;57318;56.232;43.944;2023-07-28T13:41:49;6.07;;;4.75;;
69979;SDS011;57318;56.232;43.944;2023-07-28T13:44:15;4.55;;;4.15;;
69979;SDS011;57318;56.232;43.944;2023-07-28T13:46:41;4.20;;;3.90;;
69979;SDS011;57318;56.232;43.944;2023-07-28T13:49:07;5.45;;;4.28;;
69979;SDS011;57318;56.232;43.944;2023-07-28T13:51:33;6.70;;;4.85;;
69979;SDS011;57318;56.232;43.944;2023-07-28T13:53:59;4.82;;;4.10;;
69979;SDS011;57318;56.232;43.944;2023-07-28T13:56:24;4.82;;;4.32;;
69979;SDS011;57318;56.232;43.944;2023-07-28T13:58:51;8.20;;;4.40;;
69979;SDS011;57318;56.232;43.944;2023-07-28T14:01:16;4.75;;;4.22;;
69979;SDS011;57318;56.232;43.944;2023-07-28T14:03:42;5.45;;;4.60;;
69979;SDS011;57318;56.232;43.944;2023-07-28T14:06:08;6.75;;;4.40;;
69979;SDS011;57318;56.232;43.944;2023-07-28T14:08:33;5.63;;;4.78;;
69979;SDS011;57318;56.232;43.944;2023-07-28T14:10:59;9.48;;;4.50;;
69979;SDS011;57318;56.232;43.944;2023-07-28T14:13:25;6.28;;;4.50;;
69979;SDS011;57318;56.232;43.944;2023-07-28T14:15:52;9.45;;;4.47;;
69979;SDS011;57318;56.232;43.944;2023-07-28T14:18:17;6.13;;;4.50;;
69979;SDS011;57318;56.232;43.944;2023-07-28T14:20:43;9.07;;;4.40;;
69979;SDS011;57318;56.232;43.944;2023-07-28T14:23:22;6.47;;;4.60;;
69979;SDS011;57318;56.232;43.944;2023-07-28T14:25:49;8.07;;;4.70;;
69979;SDS011;57318;56.232;43.944;2023-07-28T14:28:15;5.88;;;4.45;;
69979;SDS011;57318;56.232;43.944;2023-07-28T14:30:40;10.45;;;5.00;;
69979;SDS011;57318;56.232;43.944;2023-07-28T14:33:11;6.32;;;4.75;;
69979;SDS011;57318;56.232;43.944;2023-07-28T14:35:41;5.97;;;4.70;;
69979;SDS011;57318;56.232;43.944;2023-07-28T14:38:08;6.20;;;4.90;;
69979;SDS011;57318;56.232;43.944;2023-07-28T14:40:35;6.47;;;4.63;;
69979;SDS011;57318;56.232;43.944;2023-07-28T14:43:02;6.65;;;5.13;;
69979;SDS011;57318;56.232;43.944;2023-07-28T14:45:28;5.90;;;5.15;;
69979;SDS011;57318;56.232;43.944;2023-07-28T14:47:54;6.57;;;4.70;;
69979;SDS011;57318;56.232;43.944;2023-07-28T14:50:20;7.85;;;4.72;;